createdAt,value
2019-03-25T00:00:05.929Z,51.08
2019-03-25T00:02:36.754Z,50.88
2019-03-25T00:05:06.966Z,52.27
2019-03-25T00:07:36.121Z,52.40
2019-03-25T00:10:06.143Z,51.65
2019-03-25T00:12:35.297Z,53.42
2019-03-25T00:15:06.112Z,53.45
2019-03-25T00:17:35.277Z,50.35
2019-03-25T00:20:05.690Z,52.50
2019-03-25T00:22:34.907Z,53.68
2019-03-25T00:25:05.663Z,51.92
2019-03-25T00:27:34.816Z,54.27
2019-03-25T00:30:04.506Z,53.45
2019-03-25T00:32:33.671Z,50.15
2019-03-25T00:35:02.994Z,50.65
2019-03-25T00:37:33.244Z,49.30
2019-03-25T00:40:02.394Z,50.78
2019-03-25T00:42:31.691Z,49.93
2019-03-25T00:45:00.872Z,50.88
2019-03-25T00:47:30.111Z,46.25
2019-03-25T00:50:00.480Z,49.65
2019-03-25T00:52:29.649Z,48.70
2019-03-25T00:54:58.811Z,46.92
2019-03-25T00:57:27.985Z,49.23
2019-03-25T00:59:57.137Z,48.75
2019-03-25T01:02:26.349Z,50.12
2019-03-25T01:04:55.540Z,47.90
2019-03-25T01:07:24.705Z,49.40
2019-03-25T01:09:53.880Z,48.92
2019-03-25T01:12:23.040Z,50.35
2019-03-25T01:14:52.216Z,49.63
2019-03-25T01:17:21.380Z,47.83
2019-03-25T01:19:50.606Z,48.92
2019-03-25T01:22:19.808Z,46.08
2019-03-25T01:25:00.991Z,49.83
2019-03-25T01:27:20.873Z,47.27
2019-03-25T01:29:50.120Z,48.10
2019-03-25T01:32:19.294Z,49.15
2019-03-25T01:34:48.783Z,49.13
2019-03-25T01:37:18.018Z,50.60
2019-03-25T01:39:47.185Z,49.48
2019-03-25T01:42:16.350Z,48.10
2019-03-25T01:44:45.510Z,47.45
2019-03-25T01:47:14.718Z,50.03
2019-03-25T01:49:43.885Z,50.83
2019-03-25T01:52:13.043Z,49.08
2019-03-25T01:54:42.247Z,48.92
2019-03-25T01:57:11.476Z,47.67
2019-03-25T01:59:40.657Z,48.95
2019-03-25T02:02:09.808Z,49.67
2019-03-25T02:04:38.986Z,49.85
2019-03-25T02:07:08.143Z,50.00
2019-03-25T02:09:37.347Z,50.17
2019-03-25T02:12:06.564Z,51.20
2019-03-25T02:14:35.730Z,49.88
2019-03-25T02:17:05.957Z,50.65
2019-03-25T02:19:35.190Z,50.08
2019-03-25T02:22:04.402Z,48.70
2019-03-25T02:24:33.665Z,48.83
2019-03-25T02:27:02.839Z,49.85
2019-03-25T02:29:32.034Z,49.70
2019-03-25T02:32:01.289Z,49.23
2019-03-25T02:34:30.516Z,50.30
2019-03-25T02:36:59.687Z,50.20
2019-03-25T02:39:28.860Z,51.53
2019-03-25T02:41:58.051Z,48.63
2019-03-25T02:44:27.290Z,48.95
2019-03-25T02:46:56.528Z,50.23
2019-03-25T02:49:25.762Z,50.67
2019-03-25T02:51:55.023Z,50.55
2019-03-25T02:54:24.220Z,52.27
2019-03-25T02:56:53.376Z,52.50
2019-03-25T02:59:22.575Z,52.70
2019-03-25T03:01:51.818Z,54.10
2019-03-25T03:04:21.053Z,52.30
2019-03-25T03:06:50.213Z,51.42
2019-03-25T03:09:19.393Z,54.10
2019-03-25T03:11:48.621Z,53.42
2019-03-25T03:14:17.775Z,54.85
2019-03-25T03:16:46.968Z,53.50
2019-03-25T03:19:16.126Z,56.30
2019-03-25T03:21:45.293Z,54.40
2019-03-25T03:24:14.521Z,53.63
2019-03-25T03:26:43.678Z,54.45
2019-03-25T03:29:12.883Z,56.70
2019-03-25T03:31:42.099Z,55.78
2019-03-25T03:34:11.436Z,55.52
2019-03-25T03:36:40.605Z,57.10
2019-03-25T03:39:09.803Z,55.67
2019-03-25T03:41:38.946Z,53.40
2019-03-25T03:44:09.104Z,56.05
2019-03-25T03:46:38.364Z,55.50
2019-03-25T03:49:07.591Z,54.18
2019-03-25T03:51:37.294Z,53.13
2019-03-25T03:54:06.465Z,54.67
2019-03-25T03:56:36.193Z,54.40
2019-03-25T03:59:05.379Z,55.23
2019-03-25T04:01:34.538Z,54.45
2019-03-25T04:04:03.684Z,53.87
2019-03-25T04:06:32.857Z,54.73
2019-03-25T04:09:02.046Z,53.45
2019-03-25T04:11:32.440Z,54.80
2019-03-25T04:14:01.881Z,51.42
2019-03-25T04:16:31.120Z,51.35
2019-03-25T04:19:00.276Z,52.98
2019-03-25T04:21:29.437Z,52.88
2019-03-25T04:23:58.646Z,50.40
2019-03-25T04:26:29.394Z,55.20
2019-03-25T04:28:58.664Z,53.45
2019-03-25T04:31:27.954Z,53.95
2019-03-25T04:33:57.113Z,52.65
2019-03-25T04:36:26.307Z,52.17
2019-03-25T04:38:55.514Z,52.30
2019-03-25T04:41:24.746Z,52.03
2019-03-25T04:43:54.636Z,51.00
2019-03-25T04:46:23.883Z,52.15
2019-03-25T04:48:53.074Z,53.15
2019-03-25T04:51:22.249Z,53.28
2019-03-25T04:53:51.451Z,53.70
2019-03-25T04:56:20.608Z,52.05
2019-03-25T04:58:50.866Z,53.10
2019-03-25T05:01:20.093Z,50.78
2019-03-25T05:03:49.252Z,50.28
2019-03-25T05:06:18.421Z,54.42
2019-03-25T05:08:47.598Z,54.73
2019-03-25T05:11:16.812Z,55.08
2019-03-25T05:13:46.022Z,55.28
2019-03-25T05:16:15.213Z,55.78
2019-03-25T05:18:44.432Z,55.33
2019-03-25T05:21:13.860Z,57.80
2019-03-25T05:23:43.085Z,56.95
2019-03-25T05:26:12.367Z,55.30
2019-03-25T05:28:41.525Z,55.58
2019-03-25T05:31:10.727Z,56.65
2019-03-25T05:33:39.981Z,56.20
2019-03-25T05:36:09.206Z,55.15
2019-03-25T05:38:38.425Z,55.73
2019-03-25T05:41:07.573Z,54.20
2019-03-25T05:43:36.751Z,53.85
2019-03-25T05:46:05.930Z,52.17
2019-03-25T05:48:35.117Z,52.45
2019-03-25T05:51:04.281Z,52.27
2019-03-25T05:53:33.584Z,48.95
2019-03-25T05:56:03.082Z,51.37
2019-03-25T05:58:32.319Z,48.30
2019-03-25T06:01:04.739Z,47.85
2019-03-25T06:03:33.922Z,48.68
2019-03-25T06:06:04.215Z,44.70
2019-03-25T06:08:33.389Z,44.10
2019-03-25T06:11:02.564Z,42.05
2019-03-25T06:13:31.726Z,40.98
2019-03-25T06:16:00.930Z,39.63
2019-03-25T06:18:30.121Z,34.18
2019-03-25T06:20:59.344Z,36.00
2019-03-25T06:23:28.648Z,32.20
2019-03-25T06:25:57.887Z,33.53
2019-03-25T06:28:27.080Z,30.92
2019-03-25T06:30:56.287Z,30.02
2019-03-25T06:33:25.535Z,28.60
2019-03-25T06:35:54.718Z,27.30
2019-03-25T06:38:23.902Z,26.33
2019-03-25T06:40:53.092Z,27.32
2019-03-25T06:43:22.367Z,26.55
2019-03-25T06:45:52.630Z,26.93
2019-03-25T06:48:21.925Z,26.30
2019-03-25T06:50:51.170Z,25.37
2019-03-25T06:53:20.369Z,24.65
2019-03-25T06:55:49.557Z,24.70
2019-03-25T06:58:18.789Z,24.10
2019-03-25T07:00:48.066Z,24.70
2019-03-25T07:03:17.335Z,25.52
2019-03-25T07:05:46.727Z,24.35
2019-03-25T07:08:17.505Z,21.77
2019-03-25T07:10:46.703Z,26.87
2019-03-25T07:13:15.965Z,20.80
2019-03-25T07:15:45.403Z,20.65
2019-03-25T07:18:14.613Z,20.08
2019-03-25T07:20:43.820Z,20.97
2019-03-25T07:23:13.047Z,21.02
2019-03-25T07:25:42.235Z,20.85
2019-03-25T07:28:11.435Z,18.67
2019-03-25T07:30:40.710Z,20.25
2019-03-25T07:33:10.480Z,17.25
2019-03-25T07:35:39.793Z,19.95
2019-03-25T07:38:09.003Z,18.50
2019-03-25T07:40:38.210Z,17.25
2019-03-25T07:43:07.352Z,16.70
2019-03-25T07:45:36.611Z,18.00
2019-03-25T07:48:05.765Z,16.62
2019-03-25T07:50:35.174Z,17.65
2019-03-25T07:53:04.328Z,13.95
2019-03-25T07:55:33.629Z,16.32
2019-03-25T07:58:02.881Z,14.98
2019-03-25T08:00:32.156Z,16.85
2019-03-25T08:03:01.369Z,14.95
2019-03-25T08:05:30.588Z,14.75
2019-03-25T08:07:59.768Z,14.98
2019-03-25T08:10:34.038Z,13.55
2019-03-25T08:13:04.528Z,14.35
2019-03-25T08:15:33.946Z,15.25
2019-03-25T08:18:03.442Z,13.43
2019-03-25T08:20:32.709Z,14.68
2019-03-25T08:23:02.003Z,14.18
2019-03-25T08:25:31.250Z,13.83
2019-03-25T08:28:00.788Z,14.18
2019-03-25T08:30:30.157Z,15.40
2019-03-25T08:32:59.580Z,14.90
2019-03-25T08:35:28.817Z,14.58
2019-03-25T08:37:58.003Z,15.15
2019-03-25T08:40:27.239Z,13.70
2019-03-25T08:42:56.397Z,12.58
2019-03-25T08:45:25.760Z,14.18
2019-03-25T08:47:54.942Z,13.43
2019-03-25T08:50:24.134Z,13.35
2019-03-25T08:52:53.288Z,12.60
2019-03-25T08:55:22.463Z,13.43
2019-03-25T08:57:51.730Z,13.22
2019-03-25T09:00:20.946Z,12.73
2019-03-25T09:02:50.132Z,12.43
2019-03-25T09:05:19.589Z,11.68
2019-03-25T09:07:50.326Z,11.38
2019-03-25T09:10:19.784Z,12.43
2019-03-25T09:12:48.925Z,11.73
2019-03-25T09:15:18.109Z,11.15
2019-03-25T09:17:47.310Z,11.43
2019-03-25T09:20:16.469Z,10.00
2019-03-25T09:22:45.702Z,10.68
2019-03-25T09:25:14.877Z,9.93
2019-03-25T09:27:44.071Z,10.43
2019-03-25T09:30:13.237Z,10.48
2019-03-25T09:32:42.422Z,13.30
2019-03-25T09:35:11.569Z,11.22
2019-03-25T09:37:40.756Z,11.83
2019-03-25T09:40:09.990Z,11.78
2019-03-25T09:42:39.143Z,10.10
2019-03-25T09:45:08.500Z,9.85
2019-03-25T09:47:38.060Z,9.95
2019-03-25T09:50:07.398Z,10.68
2019-03-25T09:52:38.654Z,9.93
2019-03-25T09:55:08.466Z,9.65
2019-03-25T09:57:38.777Z,8.38
2019-03-25T10:00:11.000Z,8.73
2019-03-25T10:02:40.232Z,8.73
2019-03-25T10:05:09.545Z,7.85
2019-03-25T10:07:38.697Z,8.50
2019-03-25T10:10:08.034Z,7.42
2019-03-25T10:12:37.191Z,7.33
2019-03-25T10:15:07.934Z,6.90
2019-03-25T10:17:37.082Z,8.28
2019-03-25T10:20:07.132Z,8.40
2019-03-25T10:22:37.399Z,7.00
2019-03-25T10:25:07.824Z,6.30
2019-03-25T10:27:37.088Z,6.75
2019-03-25T10:30:12.258Z,5.97
2019-03-25T10:32:41.558Z,7.55
2019-03-25T10:35:10.698Z,6.90
2019-03-25T10:37:39.868Z,6.12
2019-03-25T10:40:09.018Z,6.17
2019-03-25T10:42:38.206Z,6.47
2019-03-25T10:45:07.696Z,7.35
2019-03-25T10:47:36.893Z,5.78
2019-03-25T10:50:07.254Z,6.35
2019-03-25T10:52:36.462Z,5.33
2019-03-25T10:55:07.816Z,3.90
2019-03-25T10:57:37.132Z,5.62
2019-03-25T11:00:08.206Z,4.05
2019-03-25T11:02:39.082Z,3.33
2019-03-25T11:05:09.407Z,5.00
2019-03-25T11:07:38.859Z,5.75
2019-03-25T11:10:08.872Z,3.52
2019-03-25T11:12:38.054Z,3.75
2019-03-25T11:15:08.719Z,4.12
2019-03-25T11:17:37.903Z,4.05
2019-03-25T11:20:08.692Z,4.67
2019-03-25T11:22:37.858Z,5.25
2019-03-25T11:25:07.228Z,4.87
2019-03-25T11:27:36.819Z,3.60
2019-03-25T11:30:10.369Z,3.00
2019-03-25T11:32:39.633Z,4.85
2019-03-25T11:35:09.274Z,3.05
2019-03-25T11:37:38.442Z,2.72
2019-03-25T11:40:08.656Z,2.87
2019-03-25T11:42:37.831Z,3.58
2019-03-25T11:45:08.933Z,2.70
2019-03-25T11:47:39.277Z,2.62
2019-03-25T11:50:08.735Z,2.80
2019-03-25T11:52:38.008Z,2.58
2019-03-25T11:55:07.597Z,2.60
2019-03-25T11:57:36.955Z,2.77
2019-03-25T12:00:09.149Z,2.85
2019-03-25T12:02:38.632Z,3.15
2019-03-25T12:05:07.870Z,3.22
2019-03-25T12:07:37.330Z,2.70
2019-03-25T12:10:06.793Z,2.92
2019-03-25T12:12:37.589Z,3.27
2019-03-25T12:15:08.069Z,2.72
2019-03-25T12:17:37.551Z,3.10
2019-03-25T12:20:07.385Z,3.90
2019-03-25T12:22:36.553Z,3.42
2019-03-25T12:25:07.422Z,3.98
2019-03-25T12:27:36.575Z,3.05
2019-03-25T12:30:07.675Z,3.02
2019-03-25T12:32:36.834Z,4.30
2019-03-25T12:35:06.783Z,3.37
2019-03-25T12:37:35.964Z,5.55
2019-03-25T12:40:07.775Z,4.92
2019-03-25T12:42:36.277Z,5.03
2019-03-25T12:45:06.985Z,3.20
2019-03-25T12:47:36.126Z,3.70
2019-03-25T12:50:07.025Z,4.92
2019-03-25T12:52:36.186Z,2.75
2019-03-25T12:55:05.614Z,4.12
2019-03-25T12:57:34.848Z,3.45
2019-03-25T13:00:05.650Z,3.40
2019-03-25T13:02:34.911Z,3.12
2019-03-25T13:05:05.785Z,3.10
2019-03-25T13:07:35.934Z,3.25
2019-03-25T13:10:06.267Z,3.90
2019-03-25T13:12:36.426Z,3.58
2019-03-25T13:15:09.610Z,3.85
2019-03-25T13:17:38.813Z,3.60
2019-03-25T13:20:08.046Z,4.35
2019-03-25T13:22:37.223Z,4.65
2019-03-25T13:25:06.520Z,5.00
2019-03-25T13:27:36.738Z,4.25
2019-03-25T13:30:07.335Z,4.53
2019-03-25T13:32:36.581Z,4.78
2019-03-25T13:35:06.515Z,4.28
2019-03-25T13:37:35.777Z,5.70
2019-03-25T13:40:06.156Z,4.20
2019-03-25T13:42:35.353Z,3.90
2019-03-25T13:45:05.951Z,4.37
2019-03-25T13:47:35.146Z,3.70
2019-03-25T13:50:06.526Z,3.45
2019-03-25T13:52:35.703Z,4.40
2019-03-25T13:55:05.836Z,4.58
2019-03-25T13:57:35.004Z,3.20
2019-03-25T14:00:06.090Z,3.77
2019-03-25T14:02:36.244Z,3.83
2019-03-25T14:05:05.879Z,3.00
2019-03-25T14:07:36.783Z,2.92
2019-03-25T14:10:09.063Z,3.12
2019-03-25T14:12:38.307Z,2.40
2019-03-25T14:15:07.976Z,3.20
2019-03-25T14:17:37.174Z,2.72
2019-03-25T14:20:07.788Z,3.10
2019-03-25T14:22:36.983Z,3.12
2019-03-25T14:25:06.234Z,2.67
2019-03-25T14:27:35.479Z,3.45
2019-03-25T14:30:14.322Z,2.55
2019-03-25T14:32:38.544Z,2.58
2019-03-25T14:35:07.767Z,3.30
2019-03-25T14:37:36.928Z,3.50
2019-03-25T14:40:07.442Z,3.65
2019-03-25T14:42:36.576Z,3.62
2019-03-25T14:45:07.089Z,4.10
2019-03-25T14:47:36.275Z,5.15
2019-03-25T14:50:08.265Z,5.53
2019-03-25T14:52:37.449Z,5.62
2019-03-25T14:55:06.647Z,4.78
2019-03-25T14:57:35.876Z,6.33
2019-03-25T15:00:08.165Z,7.03
2019-03-25T15:02:37.367Z,5.10
2019-03-25T15:05:07.375Z,4.42
2019-03-25T15:07:36.684Z,4.72
2019-03-25T15:10:06.161Z,4.70
2019-03-25T15:12:35.412Z,3.58
2019-03-25T15:15:06.779Z,4.80
2019-03-25T15:17:36.078Z,4.08
2019-03-25T15:20:10.088Z,3.98
2019-03-25T15:22:41.178Z,3.70
2019-03-25T15:25:10.679Z,3.55
2019-03-25T15:27:40.042Z,3.65
2019-03-25T15:30:09.266Z,3.77
2019-03-25T15:32:38.524Z,3.33
2019-03-25T15:35:08.405Z,3.37
2019-03-25T15:37:37.658Z,3.40
2019-03-25T15:40:08.786Z,3.70
2019-03-25T15:42:38.088Z,3.70
2019-03-25T15:45:08.340Z,3.80
2019-03-25T15:47:38.159Z,4.20
2019-03-25T15:50:09.461Z,4.00
2019-03-25T15:52:38.896Z,3.85
2019-03-25T15:55:08.060Z,4.15
2019-03-25T15:57:39.708Z,3.95
2019-03-25T16:00:21.823Z,4.12
2019-03-25T16:02:50.996Z,4.30
2019-03-25T16:05:20.171Z,4.40
2019-03-25T16:07:49.454Z,5.12
2019-03-25T16:10:19.565Z,4.50
2019-03-25T16:12:48.854Z,5.33
2019-03-25T16:15:41.141Z,5.12
2019-03-25T16:18:10.427Z,5.17
2019-03-25T16:20:39.616Z,5.70
2019-03-25T16:23:08.782Z,5.37
2019-03-25T16:25:38.217Z,5.65
2019-03-25T16:28:07.515Z,5.45
2019-03-25T16:30:36.807Z,6.20
2019-03-25T16:33:07.018Z,5.28
2019-03-25T16:35:36.230Z,3.45
2019-03-25T16:38:05.377Z,4.05
2019-03-25T16:40:34.576Z,3.75
2019-03-25T16:43:03.919Z,4.72
2019-03-25T16:45:33.260Z,4.30
2019-03-25T16:48:02.426Z,4.40
2019-03-25T16:50:31.582Z,3.58
2019-03-25T16:53:00.739Z,2.95
2019-03-25T16:55:31.533Z,3.30
2019-03-25T16:58:00.720Z,3.40
2019-03-25T17:00:29.860Z,3.42
2019-03-25T17:02:59.005Z,3.25
2019-03-25T17:05:28.230Z,3.40
2019-03-25T17:07:57.396Z,3.55
2019-03-25T17:10:26.569Z,4.00
2019-03-25T17:12:55.745Z,3.60
2019-03-25T17:15:24.935Z,4.62
2019-03-25T17:17:54.158Z,4.67
2019-03-25T17:20:23.377Z,9.28
2019-03-25T17:22:52.549Z,4.45
2019-03-25T17:25:21.703Z,5.42
2019-03-25T17:27:50.969Z,5.37
2019-03-25T17:30:20.125Z,3.55
2019-03-25T17:32:49.372Z,4.33
2019-03-25T17:35:18.510Z,4.35
2019-03-25T17:37:47.734Z,2.90
2019-03-25T17:40:16.968Z,3.77
2019-03-25T17:42:46.197Z,3.83
2019-03-25T17:45:15.516Z,3.10
2019-03-25T17:47:44.748Z,3.05
2019-03-25T17:50:13.880Z,3.60
2019-03-25T17:52:43.072Z,2.90
2019-03-25T17:55:12.234Z,3.30
2019-03-25T17:57:41.572Z,3.85
2019-03-25T18:00:11.827Z,3.65
2019-03-25T18:02:41.193Z,4.28
2019-03-25T18:05:10.357Z,3.98
2019-03-25T18:07:39.590Z,4.22
2019-03-25T18:10:08.820Z,5.17
2019-03-25T18:12:39.204Z,4.80
2019-03-25T18:15:10.534Z,4.33
2019-03-25T18:17:39.731Z,4.72
2019-03-25T18:20:18.020Z,3.62
2019-03-25T18:22:40.823Z,4.20
2019-03-25T18:25:10.098Z,4.55
2019-03-25T18:27:39.317Z,3.10
2019-03-25T18:30:08.467Z,4.00
2019-03-25T18:32:37.622Z,4.22
2019-03-25T18:35:07.947Z,3.98
2019-03-25T18:37:37.104Z,4.00
2019-03-25T18:40:06.258Z,3.52
2019-03-25T18:42:35.403Z,3.40
2019-03-25T18:45:05.519Z,3.22
2019-03-25T18:47:34.677Z,5.33
2019-03-25T18:50:06.939Z,4.28
2019-03-25T18:52:36.095Z,3.60
2019-03-25T18:55:06.803Z,3.67
2019-03-25T18:57:36.131Z,4.03
2019-03-25T19:00:07.649Z,6.42
2019-03-25T19:02:36.893Z,4.40
2019-03-25T19:05:06.452Z,4.58
2019-03-25T19:07:36.006Z,4.10
2019-03-25T19:10:07.491Z,3.90
2019-03-25T19:12:37.640Z,4.40
2019-03-25T19:15:07.286Z,3.60
2019-03-25T19:17:36.526Z,4.00
2019-03-25T19:20:06.708Z,3.62
2019-03-25T19:22:35.972Z,4.87
2019-03-25T19:25:05.853Z,3.75
2019-03-25T19:27:35.119Z,3.12
2019-03-25T19:30:07.010Z,4.00
2019-03-25T19:32:36.304Z,3.67
2019-03-25T19:35:08.750Z,3.80
2019-03-25T19:37:38.043Z,3.87
2019-03-25T19:40:08.217Z,3.33
2019-03-25T19:42:37.467Z,4.22
2019-03-25T19:45:08.114Z,3.40
2019-03-25T19:47:37.536Z,3.87
2019-03-25T19:50:07.069Z,3.45
2019-03-25T19:52:36.370Z,3.37
2019-03-25T19:55:06.692Z,3.62
2019-03-25T19:57:35.936Z,3.67
2019-03-25T20:00:09.275Z,3.12
2019-03-25T20:02:38.763Z,3.47
2019-03-25T20:05:08.293Z,3.27
2019-03-25T20:07:37.896Z,3.83
2019-03-25T20:10:07.836Z,5.10
2019-03-25T20:12:37.219Z,3.65
2019-03-25T20:15:07.296Z,3.22
2019-03-25T20:17:36.655Z,3.15
2019-03-25T20:20:07.763Z,3.08
2019-03-25T20:22:37.855Z,2.95
2019-03-25T20:25:07.195Z,2.95
2019-03-25T20:27:38.952Z,3.47
2019-03-25T20:30:10.117Z,3.12
2019-03-25T20:32:39.421Z,4.12
2019-03-25T20:35:08.727Z,3.08
2019-03-25T20:37:38.161Z,3.90
2019-03-25T20:40:07.740Z,4.08
2019-03-25T20:42:38.182Z,3.92
2019-03-25T20:45:09.170Z,3.70
2019-03-25T20:47:38.448Z,3.92
2019-03-25T20:50:07.916Z,4.25
2019-03-25T20:52:37.753Z,4.80
2019-03-25T20:55:07.416Z,4.08
2019-03-25T20:57:36.666Z,4.53
2019-03-25T21:00:09.174Z,4.67
2019-03-25T21:02:45.411Z,5.00
2019-03-25T21:05:11.928Z,5.70
2019-03-25T21:07:41.350Z,5.70
2019-03-25T21:10:10.640Z,5.75
2019-03-25T21:12:40.990Z,4.90
2019-03-25T21:15:10.931Z,6.05
2019-03-25T21:17:40.855Z,6.72
2019-03-25T21:20:10.297Z,6.37
2019-03-25T21:22:39.616Z,6.25
2019-03-25T21:25:08.904Z,7.15
2019-03-25T21:27:38.282Z,8.28
2019-03-25T21:30:07.866Z,6.37
2019-03-25T21:32:37.212Z,28.15
2019-03-25T21:35:06.525Z,10.48
2019-03-25T21:37:35.922Z,13.13
2019-03-25T21:40:06.588Z,7.72
2019-03-25T21:42:35.885Z,10.98
2019-03-25T21:45:07.970Z,7.70
2019-03-25T21:47:37.261Z,21.45
2019-03-25T21:50:07.106Z,11.83
2019-03-25T21:52:36.472Z,9.60
2019-03-25T21:55:06.577Z,8.63
2019-03-25T21:57:36.094Z,7.87
2019-03-25T22:00:07.883Z,7.33
2019-03-25T22:02:37.193Z,7.87
2019-03-25T22:05:06.894Z,8.83
2019-03-25T22:07:36.344Z,9.25
2019-03-25T22:10:05.899Z,7.12
2019-03-25T22:12:35.204Z,6.22
2019-03-25T22:15:08.036Z,7.45
2019-03-25T22:17:38.123Z,7.53
2019-03-25T22:20:08.010Z,9.43
2019-03-25T22:22:37.214Z,7.22
2019-03-25T22:25:11.239Z,7.97
2019-03-25T22:27:40.434Z,7.50
2019-03-25T22:30:11.238Z,9.40
2019-03-25T22:32:40.448Z,15.88
2019-03-25T22:35:09.694Z,11.40
2019-03-25T22:37:39.111Z,10.58
2019-03-25T22:40:08.875Z,9.48
2019-03-25T22:42:39.108Z,8.43
2019-03-25T22:45:08.403Z,9.68
2019-03-25T22:47:37.596Z,8.43
2019-03-25T22:50:07.707Z,7.15
2019-03-25T22:52:36.964Z,6.28
2019-03-25T22:55:06.794Z,6.22
2019-03-25T22:57:35.966Z,6.65
2019-03-25T23:00:07.031Z,6.55
2019-03-25T23:02:36.564Z,6.42
2019-03-25T23:05:06.504Z,6.10
2019-03-25T23:07:35.870Z,6.37
2019-03-25T23:10:05.156Z,6.87
2019-03-25T23:12:35.516Z,5.80
2019-03-25T23:15:05.596Z,6.05
2019-03-25T23:17:34.881Z,5.97
2019-03-25T23:20:04.990Z,5.92
2019-03-25T23:22:34.244Z,5.33
2019-03-25T23:25:04.276Z,5.85
2019-03-25T23:27:33.630Z,6.22
2019-03-25T23:30:03.138Z,5.42
2019-03-25T23:32:32.484Z,5.37
2019-03-25T23:35:02.130Z,6.50
2019-03-25T23:37:31.378Z,6.50
2019-03-25T23:40:00.609Z,6.20
2019-03-25T23:42:29.818Z,6.30
2019-03-25T23:44:59.022Z,6.55
2019-03-25T23:47:28.417Z,6.95
2019-03-25T23:49:57.815Z,6.08
2019-03-25T23:52:26.971Z,6.37
2019-03-25T23:54:56.248Z,6.92
2019-03-25T23:57:25.482Z,7.33
2019-03-25T23:59:54.753Z,7.10
